createdAt,value
2023-04-26T00:02:25.019Z,97611.16
2023-04-26T00:05:02.535Z,97616.03
2023-04-26T00:07:30.767Z,97626.63
2023-04-26T00:09:58.179Z,97619.88
2023-04-26T00:12:25.915Z,97623.75
2023-04-26T00:14:53.300Z,97624.38
2023-04-26T00:17:20.760Z,97616.47
2023-04-26T00:19:48.258Z,97619.50
2023-04-26T00:22:15.759Z,97623.09
2023-04-26T00:24:43.614Z,97629.81
2023-04-26T00:27:11.227Z,97627.38
2023-04-26T00:29:38.985Z,97625.94
2023-04-26T00:32:06.887Z,97632.25
2023-04-26T00:34:36.126Z,97629.75
2023-04-26T00:37:04.929Z,97624.47
2023-04-26T00:39:32.354Z,97632.00
2023-04-26T00:42:00.004Z,97632.00
2023-04-26T00:44:27.493Z,97634.66
2023-04-26T00:46:56.197Z,97644.41
2023-04-26T00:49:26.185Z,97644.16
2023-04-26T00:51:54.156Z,97648.22
2023-04-26T00:54:22.000Z,97642.94
2023-04-26T00:56:52.249Z,97641.94
2023-04-26T00:59:21.387Z,97640.69
2023-04-26T01:01:49.503Z,97644.34
2023-04-26T01:04:18.118Z,97639.88
2023-04-26T01:06:46.535Z,97644.84
2023-04-26T01:09:15.932Z,97645.69
2023-04-26T01:11:44.544Z,97656.00
2023-04-26T01:14:12.323Z,97642.78
2023-04-26T01:16:41.065Z,97640.78
2023-04-26T01:19:15.462Z,97648.09
2023-04-26T01:21:43.773Z,97653.38
2023-04-26T01:24:12.815Z,97644.59
2023-04-26T01:26:46.714Z,97647.25
2023-04-26T01:29:18.719Z,97656.31
2023-04-26T01:31:47.143Z,97653.41
2023-04-26T01:34:15.331Z,97649.28
2023-04-26T01:36:42.905Z,97654.25
2023-04-26T01:39:10.542Z,97660.38
2023-04-26T01:41:38.084Z,97665.19
2023-04-26T01:44:05.726Z,97659.03
2023-04-26T01:46:33.414Z,97660.00
2023-04-26T01:49:01.001Z,97667.28
2023-04-26T01:51:30.353Z,97658.94
2023-04-26T01:53:57.798Z,97662.38
2023-04-26T01:56:26.121Z,97665.81
2023-04-26T01:58:56.547Z,97660.94
2023-04-26T02:01:24.436Z,97658.22
2023-04-26T02:03:52.728Z,97664.31
2023-04-26T02:06:21.633Z,97664.94
2023-04-26T02:08:49.740Z,97666.94
2023-04-26T02:11:17.525Z,97663.50
2023-04-26T02:13:45.061Z,97664.31
2023-04-26T02:16:12.705Z,97662.88
2023-04-26T02:18:41.713Z,97667.44
2023-04-26T02:21:12.107Z,97667.63
2023-04-26T02:23:39.711Z,97669.84
2023-04-26T02:26:07.207Z,97668.00
2023-04-26T02:28:34.937Z,97674.25
2023-04-26T02:31:03.179Z,97665.75
2023-04-26T02:33:31.487Z,97671.84
2023-04-26T02:35:59.726Z,97671.09
2023-04-26T02:38:27.543Z,97661.28
2023-04-26T02:41:03.402Z,97660.28
2023-04-26T02:43:31.876Z,97659.66
2023-04-26T02:46:01.080Z,97651.75
2023-04-26T02:48:28.831Z,97654.56
2023-04-26T02:50:57.232Z,97651.13
2023-04-26T02:53:25.032Z,97653.94
2023-04-26T02:55:52.399Z,97667.94
2023-04-26T02:58:20.013Z,97662.09
2023-04-26T03:00:48.476Z,97663.13
2023-04-26T03:03:16.779Z,97664.94
2023-04-26T03:05:46.385Z,97674.47
2023-04-26T03:08:14.721Z,97665.91
2023-04-26T03:10:42.222Z,97663.28
2023-04-26T03:13:09.776Z,97658.91
2023-04-26T03:15:37.227Z,97668.88
2023-04-26T03:18:05.012Z,97669.09
2023-04-26T03:20:32.574Z,97666.69
2023-04-26T03:23:00.361Z,97672.78
2023-04-26T03:25:27.873Z,97674.34
2023-04-26T03:27:56.749Z,97678.63
2023-04-26T03:30:24.337Z,97675.59
2023-04-26T03:32:52.921Z,97675.59
2023-04-26T03:35:20.653Z,97673.97
2023-04-26T03:37:48.242Z,97672.97
2023-04-26T03:40:18.240Z,97674.44
2023-04-26T03:42:46.156Z,97682.50
2023-04-26T03:45:13.655Z,97682.50
2023-04-26T03:47:41.215Z,97685.13
2023-04-26T03:50:09.080Z,97682.94
2023-04-26T03:52:36.648Z,97691.50
2023-04-26T03:55:06.022Z,97689.50
2023-04-26T03:57:33.614Z,97692.66
2023-04-26T04:00:01.924Z,97701.47
2023-04-26T04:02:31.583Z,97703.00
2023-04-26T04:04:59.488Z,97700.09
2023-04-26T04:07:27.109Z,97699.03
2023-04-26T04:09:54.961Z,97693.38
2023-04-26T04:12:23.239Z,97695.25
2023-04-26T04:14:52.650Z,97701.19
2023-04-26T04:17:20.402Z,97704.69
2023-04-26T04:19:48.208Z,97702.34
2023-04-26T04:22:16.690Z,97706.69
2023-04-26T04:24:45.008Z,97707.03
2023-04-26T04:27:12.533Z,97704.47
2023-04-26T04:29:42.307Z,97706.84
2023-04-26T04:32:10.260Z,97710.84
2023-04-26T04:34:38.062Z,97703.06
2023-04-26T04:37:05.675Z,97709.78
2023-04-26T04:39:33.674Z,97703.88
2023-04-26T04:42:01.228Z,97708.25
2023-04-26T04:44:29.222Z,97715.44
2023-04-26T04:46:58.533Z,97720.22
2023-04-26T04:49:26.118Z,97718.34
2023-04-26T04:51:54.141Z,97726.41
2023-04-26T04:54:21.673Z,97724.47
2023-04-26T04:56:49.299Z,97722.94
2023-04-26T04:59:17.284Z,97718.34
2023-04-26T05:01:44.986Z,97718.41
2023-04-26T05:04:15.427Z,97725.59
2023-04-26T05:06:43.848Z,97721.47
2023-04-26T05:09:11.580Z,97719.25
2023-04-26T05:11:39.447Z,97724.63
2023-04-26T05:14:08.761Z,97726.59
2023-04-26T05:16:38.589Z,97733.91
2023-04-26T05:19:09.171Z,97732.13
2023-04-26T05:21:37.435Z,97732.72
2023-04-26T05:24:05.078Z,97733.28
2023-04-26T05:26:32.587Z,97734.16
2023-04-26T05:29:32.497Z,97740.81
2023-04-26T05:32:06.036Z,97741.81
2023-04-26T05:35:06.904Z,97745.81
2023-04-26T05:37:35.819Z,97743.19
2023-04-26T05:40:04.796Z,97742.66
2023-04-26T05:42:32.353Z,97740.63
2023-04-26T05:44:59.968Z,97750.75
2023-04-26T05:47:28.616Z,97756.41
2023-04-26T05:49:56.191Z,97759.66
2023-04-26T05:52:23.814Z,97755.50
2023-04-26T05:54:53.022Z,97756.81
2023-04-26T05:57:20.617Z,97759.47
2023-04-26T05:59:48.323Z,97767.88
2023-04-26T06:02:17.586Z,97759.91
2023-04-26T06:04:46.357Z,97762.56
2023-04-26T06:07:17.533Z,97752.00
2023-04-26T06:09:47.655Z,97755.91
2023-04-26T06:12:15.453Z,97755.16
2023-04-26T06:14:45.152Z,97758.06
2023-04-26T06:17:17.191Z,97758.19
2023-04-26T06:19:44.770Z,97757.34
2023-04-26T06:22:12.763Z,97762.13
2023-04-26T06:24:40.294Z,97756.78
2023-04-26T06:27:08.335Z,97761.84
2023-04-26T06:29:37.394Z,97758.16
2023-04-26T06:32:05.241Z,97762.94
2023-04-26T06:34:33.990Z,97758.59
2023-04-26T06:37:01.560Z,97757.88
2023-04-26T06:39:30.150Z,97768.34
2023-04-26T06:41:57.599Z,97765.38
2023-04-26T06:44:29.381Z,97773.00
2023-04-26T06:47:02.958Z,97772.94
2023-04-26T06:49:30.606Z,97776.91
2023-04-26T06:51:58.217Z,97772.81
2023-04-26T06:54:29.536Z,97773.69
2023-04-26T06:56:58.773Z,97773.84
2023-04-26T06:59:27.082Z,97783.31
2023-04-26T07:01:54.941Z,97782.63
2023-04-26T07:04:22.803Z,97775.19
2023-04-26T07:06:51.334Z,97786.41
2023-04-26T07:09:18.874Z,97777.06
2023-04-26T07:11:47.623Z,97776.16
2023-04-26T07:14:15.243Z,97786.41
2023-04-26T07:16:42.776Z,97775.63
2023-04-26T07:19:11.246Z,97776.06
2023-04-26T07:21:38.754Z,97776.91
2023-04-26T07:24:06.898Z,97776.41
2023-04-26T07:26:36.016Z,97780.66
2023-04-26T07:29:04.109Z,97777.50
2023-04-26T07:31:32.377Z,97780.78
2023-04-26T07:34:00.091Z,97789.72
2023-04-26T07:36:28.116Z,97791.00
2023-04-26T07:38:55.628Z,97796.28
2023-04-26T07:41:23.238Z,97798.06
2023-04-26T07:43:51.019Z,97796.53
2023-04-26T07:46:18.859Z,97795.59
2023-04-26T07:48:46.457Z,97785.72
2023-04-26T07:51:14.164Z,97800.88
2023-04-26T07:53:41.798Z,97801.75
2023-04-26T07:56:09.713Z,97793.09
2023-04-26T07:58:39.445Z,97796.03
2023-04-26T08:01:07.225Z,97792.75
2023-04-26T08:03:35.066Z,97794.03
2023-04-26T08:06:02.975Z,97786.59
2023-04-26T08:08:30.764Z,97790.38
2023-04-26T08:10:58.263Z,97784.88
2023-04-26T08:13:28.577Z,97780.22
2023-04-26T08:15:56.876Z,97785.88
2023-04-26T08:18:24.328Z,97788.00
2023-04-26T08:20:51.866Z,97806.22
2023-04-26T08:23:19.741Z,97802.34
2023-04-26T08:25:48.015Z,97796.91
2023-04-26T08:28:16.336Z,97803.97
2023-04-26T08:30:43.894Z,97801.28
2023-04-26T08:33:11.482Z,97802.44
2023-04-26T08:35:38.980Z,97798.78
2023-04-26T08:38:06.484Z,97807.50
2023-04-26T08:40:34.270Z,97805.88
2023-04-26T08:43:01.718Z,97809.69
2023-04-26T08:45:29.251Z,97812.19
2023-04-26T08:48:07.326Z,97807.88
2023-04-26T08:50:38.060Z,97808.41
2023-04-26T08:53:06.223Z,97788.53
2023-04-26T08:55:35.949Z,97802.44
2023-04-26T08:58:04.524Z,97795.69
2023-04-26T09:00:32.221Z,97786.63
2023-04-26T09:02:59.864Z,97799.72
2023-04-26T09:05:27.492Z,97799.34
2023-04-26T09:08:00.947Z,97804.94
2023-04-26T09:10:28.556Z,97808.34
2023-04-26T09:12:56.739Z,97807.28
2023-04-26T09:15:26.593Z,97813.31
2023-04-26T09:17:54.254Z,97808.53
2023-04-26T09:20:29.519Z,97820.88
2023-04-26T09:23:08.704Z,97817.38
2023-04-26T09:25:37.314Z,97825.69
2023-04-26T09:28:20.573Z,97822.97
2023-04-26T09:30:48.997Z,97822.03
2023-04-26T09:33:16.951Z,97825.75
2023-04-26T09:35:44.750Z,97825.59
2023-04-26T09:38:17.780Z,97810.94
2023-04-26T09:40:46.313Z,97821.50
2023-04-26T09:43:16.298Z,97818.31
2023-04-26T09:45:49.104Z,97816.63
2023-04-26T09:48:18.104Z,97816.63
2023-04-26T09:50:46.508Z,97809.94
2023-04-26T09:53:37.428Z,97811.94
2023-04-26T09:56:36.383Z,97820.06
2023-04-26T09:59:05.891Z,97814.53
2023-04-26T10:01:34.204Z,97816.50
2023-04-26T10:04:03.062Z,97820.41
2023-04-26T10:06:30.827Z,97822.09
2023-04-26T10:08:58.447Z,97824.31
2023-04-26T10:11:27.034Z,97823.28
2023-04-26T10:13:55.294Z,97819.19
2023-04-26T10:16:23.798Z,97815.31
2023-04-26T10:18:51.797Z,97811.97
2023-04-26T10:21:37.219Z,97812.78
2023-04-26T10:24:05.698Z,97815.63
2023-04-26T10:26:54.599Z,97816.53
2023-04-26T10:29:23.012Z,97810.72
2023-04-26T10:32:03.001Z,97806.97
2023-04-26T10:34:32.413Z,97816.44
2023-04-26T10:37:16.293Z,97802.91
2023-04-26T10:39:45.714Z,97812.59
2023-04-26T10:42:26.795Z,97808.63
2023-04-26T10:44:58.961Z,97798.66
2023-04-26T10:47:36.093Z,97796.03
2023-04-26T10:50:12.759Z,97794.16
2023-04-26T10:53:05.945Z,97796.75
2023-04-26T10:55:43.316Z,97805.00
2023-04-26T10:58:34.866Z,97805.63
2023-04-26T11:01:08.541Z,97803.47
2023-04-26T11:03:38.811Z,97804.00
2023-04-26T11:06:07.959Z,97805.81
2023-04-26T11:08:36.996Z,97808.13
2023-04-26T11:11:12.292Z,97799.56
2023-04-26T11:13:42.163Z,97802.03
2023-04-26T11:16:12.020Z,97798.91
2023-04-26T11:18:42.497Z,97805.88
2023-04-26T11:21:10.875Z,97804.34
2023-04-26T11:23:38.661Z,97801.00
2023-04-26T11:26:08.644Z,97807.97
2023-04-26T11:28:38.463Z,97795.25
2023-04-26T11:31:07.647Z,97808.03
2023-04-26T11:33:35.333Z,97803.41
2023-04-26T11:36:03.577Z,97803.78
2023-04-26T11:38:31.112Z,97806.88
2023-04-26T11:40:59.925Z,97809.66
2023-04-26T11:43:38.067Z,97813.84
2023-04-26T11:46:10.098Z,97811.75
2023-04-26T11:48:39.227Z,97822.31
2023-04-26T11:51:08.379Z,97816.50
2023-04-26T11:53:43.355Z,97814.66
2023-04-26T11:56:19.158Z,97817.94
2023-04-26T11:58:47.866Z,97816.41
2023-04-26T12:01:25.412Z,97827.44
2023-04-26T12:03:58.733Z,97817.19
2023-04-26T12:06:41.785Z,97815.03
2023-04-26T12:09:09.747Z,97819.34
2023-04-26T12:11:37.705Z,97825.13
2023-04-26T12:14:06.169Z,97823.25
2023-04-26T12:16:36.628Z,97823.09
2023-04-26T12:19:08.253Z,97821.63
2023-04-26T12:21:43.135Z,97820.91
2023-04-26T12:24:25.296Z,97829.41
2023-04-26T12:26:54.303Z,97835.09
2023-04-26T12:29:21.803Z,97832.16
2023-04-26T12:31:49.347Z,97831.91
2023-04-26T12:34:16.924Z,97828.41
2023-04-26T12:36:44.719Z,97828.81
2023-04-26T12:39:14.575Z,97832.59
2023-04-26T12:41:43.462Z,97832.47
2023-04-26T12:44:11.798Z,97831.53
2023-04-26T12:46:39.576Z,97831.41
2023-04-26T12:49:07.742Z,97829.00
2023-04-26T12:51:35.329Z,97826.47
2023-04-26T12:54:03.138Z,97824.63
2023-04-26T12:56:30.616Z,97824.72
2023-04-26T12:58:58.287Z,97831.41
2023-04-26T13:01:26.531Z,97823.22
2023-04-26T13:03:55.764Z,97828.31
2023-04-26T13:06:23.603Z,97827.06
2023-04-26T13:08:51.288Z,97830.38
2023-04-26T13:11:18.794Z,97830.50
2023-04-26T13:13:46.434Z,97839.78
2023-04-26T13:16:14.012Z,97837.00
2023-04-26T13:18:41.861Z,97832.41
2023-04-26T13:21:09.360Z,97822.09
2023-04-26T13:23:36.936Z,97823.59
2023-04-26T13:26:04.440Z,97818.16
2023-04-26T13:28:32.100Z,97814.41
2023-04-26T13:30:59.813Z,97822.72
2023-04-26T13:33:27.508Z,97816.94
2023-04-26T13:35:54.997Z,97820.75
2023-04-26T13:38:22.467Z,97812.91
2023-04-26T13:40:50.057Z,97830.91
2023-04-26T13:43:17.851Z,97820.81
2023-04-26T13:45:45.378Z,97827.78
2023-04-26T13:48:13.272Z,97822.50
2023-04-26T13:50:41.274Z,97829.25
2023-04-26T13:53:08.794Z,97833.06
2023-04-26T13:55:36.304Z,97823.81
2023-04-26T13:58:03.969Z,97826.63
2023-04-26T14:00:31.524Z,97831.50
2023-04-26T14:02:59.153Z,97838.31
2023-04-26T14:05:26.786Z,97832.31
2023-04-26T14:07:55.365Z,97834.34
2023-04-26T14:10:23.309Z,97838.34
2023-04-26T14:12:50.945Z,97838.59
2023-04-26T14:15:18.419Z,97834.84
2023-04-26T14:17:47.137Z,97841.59
2023-04-26T14:20:14.674Z,97836.50
2023-04-26T14:22:42.187Z,97832.25
2023-04-26T14:25:09.954Z,97840.47
2023-04-26T14:27:39.605Z,97842.69
2023-04-26T14:30:07.931Z,97841.03
2023-04-26T14:32:35.497Z,97848.91
2023-04-26T14:35:03.174Z,97847.56
2023-04-26T14:37:30.681Z,97846.16
2023-04-26T14:39:58.165Z,97839.25
2023-04-26T14:42:25.628Z,97841.47
2023-04-26T14:44:53.172Z,97838.97
2023-04-26T14:47:20.813Z,97841.28
2023-04-26T14:49:48.721Z,97841.19
2023-04-26T14:52:16.513Z,97849.47
2023-04-26T14:54:44.172Z,97847.44
2023-04-26T14:57:12.025Z,97847.91
2023-04-26T14:59:39.481Z,97846.00
2023-04-26T15:02:07.384Z,97842.03
2023-04-26T15:04:37.132Z,97840.75
2023-04-26T15:07:04.810Z,97849.47
2023-04-26T15:09:32.777Z,97843.69
2023-04-26T15:12:02.626Z,97847.56
2023-04-26T15:14:30.463Z,97843.06
2023-04-26T15:16:58.402Z,97842.47
2023-04-26T15:19:25.927Z,97842.50
2023-04-26T15:21:53.481Z,97849.28
2023-04-26T15:24:20.920Z,97846.13
2023-04-26T15:26:48.368Z,97845.81
2023-04-26T15:29:15.864Z,97844.34
2023-04-26T15:31:43.430Z,97845.59
2023-04-26T15:34:10.911Z,97845.97
2023-04-26T15:36:38.401Z,97847.22
2023-04-26T15:39:05.905Z,97849.72
2023-04-26T15:41:33.423Z,97856.31
2023-04-26T15:44:00.950Z,97846.16
2023-04-26T15:46:28.505Z,97859.09
2023-04-26T15:48:56.131Z,97846.91
2023-04-26T15:51:23.631Z,97857.22
2023-04-26T15:53:51.603Z,97854.88
2023-04-26T15:56:19.600Z,97858.38
2023-04-26T15:58:47.796Z,97864.88
2023-04-26T16:01:15.604Z,97856.66
2023-04-26T16:03:47.180Z,97869.25
2023-04-26T16:06:15.680Z,97863.16
2023-04-26T16:08:43.433Z,97864.44
2023-04-26T16:11:11.334Z,97861.25
2023-04-26T16:13:38.868Z,97854.50
2023-04-26T16:16:09.049Z,97862.00
2023-04-26T16:18:39.729Z,97856.88
2023-04-26T16:21:09.859Z,97863.34
2023-04-26T16:23:38.291Z,97854.41
2023-04-26T16:26:06.121Z,97848.06
2023-04-26T16:28:33.697Z,97853.28
2023-04-26T16:31:01.605Z,97856.78
2023-04-26T16:33:29.159Z,97849.25
2023-04-26T16:35:56.694Z,97860.72
2023-04-26T16:38:24.342Z,97861.34
2023-04-26T16:40:59.324Z,97865.09
2023-04-26T16:43:30.803Z,97861.03
2023-04-26T16:46:06.020Z,97864.88
2023-04-26T16:48:36.663Z,97867.72
2023-04-26T16:51:07.441Z,97863.22
2023-04-26T16:53:37.779Z,97866.81
2023-04-26T16:56:05.996Z,97868.84
2023-04-26T16:58:33.436Z,97863.91
2023-04-26T17:01:01.210Z,97865.72
2023-04-26T17:03:29.032Z,97866.31
2023-04-26T17:05:56.740Z,97868.88
2023-04-26T17:08:24.276Z,97872.84
2023-04-26T17:10:52.023Z,97878.78
2023-04-26T17:13:19.922Z,97881.13
2023-04-26T17:15:47.757Z,97872.31
2023-04-26T17:18:15.265Z,97878.53
2023-04-26T17:20:42.802Z,97876.72
2023-04-26T17:23:10.331Z,97887.63
2023-04-26T17:25:37.841Z,97888.06
2023-04-26T17:28:05.468Z,97890.75
2023-04-26T17:30:33.482Z,97884.84
2023-04-26T17:33:01.052Z,97885.53
2023-04-26T17:35:28.532Z,97899.00
2023-04-26T17:37:56.102Z,97900.63
2023-04-26T17:40:23.601Z,97894.72
2023-04-26T17:42:51.108Z,97886.75
2023-04-26T17:45:18.690Z,97886.38
2023-04-26T17:47:46.233Z,97893.31
2023-04-26T17:50:13.900Z,97891.06
2023-04-26T17:52:42.102Z,97890.84
2023-04-26T17:55:10.221Z,97892.91
2023-04-26T17:57:38.266Z,97902.13
2023-04-26T18:00:12.840Z,97895.78
2023-04-26T18:02:43.371Z,97904.38
2023-04-26T18:05:11.180Z,97906.63
2023-04-26T18:07:38.826Z,97906.22
2023-04-26T18:10:06.840Z,97913.38
2023-04-26T18:12:34.580Z,97912.56
2023-04-26T18:15:02.458Z,97910.16
2023-04-26T18:17:29.932Z,97919.31
2023-04-26T18:19:57.474Z,97917.28
2023-04-26T18:22:25.012Z,97926.88
2023-04-26T18:24:52.607Z,97927.28
2023-04-26T18:27:20.075Z,97925.44
2023-04-26T18:29:49.304Z,97932.56
2023-04-26T18:32:16.931Z,97936.66
2023-04-26T18:34:44.441Z,97930.31
2023-04-26T18:37:11.854Z,97930.50
2023-04-26T18:39:39.380Z,97939.91
2023-04-26T18:42:07.260Z,97930.31
2023-04-26T18:44:34.757Z,97937.47
2023-04-26T18:47:02.291Z,97938.66
2023-04-26T18:49:29.708Z,97938.66
2023-04-26T18:51:57.526Z,97937.44
2023-04-26T18:54:26.401Z,97942.31
2023-04-26T18:56:54.292Z,97943.34
2023-04-26T18:59:21.821Z,97946.63
2023-04-26T19:01:49.434Z,97944.78
2023-04-26T19:04:17.265Z,97951.13
2023-04-26T19:06:44.850Z,97957.22
2023-04-26T19:09:13.063Z,97955.16
2023-04-26T19:11:40.652Z,97952.53
2023-04-26T19:14:08.185Z,97956.59
2023-04-26T19:16:35.820Z,97952.91
2023-04-26T19:19:03.467Z,97959.25
2023-04-26T19:21:32.140Z,97957.59
2023-04-26T19:23:59.643Z,97964.53
2023-04-26T19:26:27.195Z,97964.72
2023-04-26T19:28:55.932Z,97963.09
2023-04-26T19:31:23.652Z,97964.31
2023-04-26T19:33:51.255Z,97964.31
2023-04-26T19:36:18.762Z,97957.59
2023-04-26T19:38:48.467Z,97953.72
2023-04-26T19:41:16.176Z,97964.09
2023-04-26T19:43:43.625Z,97964.69
2023-04-26T19:46:15.564Z,97967.53
2023-04-26T19:48:43.325Z,97960.19
2023-04-26T19:51:17.857Z,97966.09
2023-04-26T19:53:45.571Z,97963.84
2023-04-26T19:56:13.068Z,97959.56
2023-04-26T19:58:40.739Z,97963.25
2023-04-26T20:01:08.348Z,97959.38
2023-04-26T20:03:37.674Z,97960.19
2023-04-26T20:06:05.329Z,97962.22
2023-04-26T20:08:32.812Z,97964.22
2023-04-26T20:11:04.563Z,97963.00
2023-04-26T20:13:32.618Z,97966.06
2023-04-26T20:16:00.177Z,97961.78
2023-04-26T20:18:27.750Z,97966.06
2023-04-26T20:20:55.314Z,97966.47
2023-04-26T20:23:22.887Z,97962.59
2023-04-26T20:25:51.280Z,97965.78
2023-04-26T20:28:19.028Z,97962.84
2023-04-26T20:30:46.749Z,97962.81
2023-04-26T20:33:14.578Z,97963.16
2023-04-26T20:35:42.275Z,97964.94
2023-04-26T20:38:09.815Z,97962.66
2023-04-26T20:40:37.731Z,97962.59
2023-04-26T20:43:05.178Z,97956.25
2023-04-26T20:45:32.799Z,97958.91
2023-04-26T20:48:00.366Z,97966.16
2023-04-26T20:50:28.012Z,97962.84
2023-04-26T20:52:55.594Z,97967.09
2023-04-26T20:55:23.294Z,97964.19
2023-04-26T20:57:50.897Z,97965.41
2023-04-26T21:00:18.715Z,97960.69
2023-04-26T21:02:46.330Z,97956.59
2023-04-26T21:05:13.908Z,97959.00
2023-04-26T21:07:41.335Z,97962.84
2023-04-26T21:10:09.659Z,97960.56
2023-04-26T21:12:37.253Z,97959.06
2023-04-26T21:15:06.207Z,97965.31
2023-04-26T21:17:35.452Z,97966.69
2023-04-26T21:20:03.249Z,97961.53
2023-04-26T21:22:30.668Z,97966.66
2023-04-26T21:24:58.121Z,97968.16
2023-04-26T21:27:25.642Z,97969.22
2023-04-26T21:29:53.018Z,97967.69
2023-04-26T21:32:20.582Z,97969.59
2023-04-26T21:34:48.030Z,97971.34
2023-04-26T21:37:16.839Z,97973.56
2023-04-26T21:39:44.300Z,97975.19
2023-04-26T21:42:11.881Z,97974.38
2023-04-26T21:44:39.341Z,97979.72
2023-04-26T21:47:06.976Z,97980.91
2023-04-26T21:49:35.593Z,97993.66
2023-04-26T21:52:03.094Z,97990.56
2023-04-26T21:54:30.851Z,97990.72
2023-04-26T21:56:58.276Z,97993.19
2023-04-26T21:59:25.850Z,97995.19
2023-04-26T22:01:53.321Z,98001.03
2023-04-26T22:04:21.002Z,98000.56
2023-04-26T22:06:48.633Z,98004.41
2023-04-26T22:09:16.049Z,98001.31
2023-04-26T22:11:43.566Z,98003.28
2023-04-26T22:14:11.090Z,98007.09
2023-04-26T22:16:38.735Z,98001.19
2023-04-26T22:19:06.187Z,98006.38
2023-04-26T22:21:33.686Z,98009.56
2023-04-26T22:24:01.296Z,98014.38
2023-04-26T22:26:28.896Z,98017.97
2023-04-26T22:30:20.326Z,98017.53
2023-04-26T22:32:55.707Z,98015.25
2023-04-26T22:35:25.324Z,98016.41
2023-04-26T22:37:53.064Z,98014.78
2023-04-26T22:40:20.645Z,98024.53
2023-04-26T22:42:48.215Z,98023.06
2023-04-26T22:45:16.028Z,98025.03
2023-04-26T22:47:43.491Z,98022.94
2023-04-26T22:50:11.550Z,98024.13
2023-04-26T22:52:39.182Z,98026.09
2023-04-26T22:55:07.298Z,98027.63
2023-04-26T22:57:34.711Z,98036.09
2023-04-26T23:00:02.224Z,98029.50
2023-04-26T23:02:29.783Z,98024.25
2023-04-26T23:04:57.309Z,98022.59
2023-04-26T23:07:25.161Z,98029.03
2023-04-26T23:09:52.682Z,98032.69
2023-04-26T23:12:20.353Z,98028.78
2023-04-26T23:14:48.847Z,98031.56
2023-04-26T23:17:16.654Z,98029.94
2023-04-26T23:19:44.128Z,98022.53
2023-04-26T23:22:11.579Z,98030.09
2023-04-26T23:24:39.003Z,98026.00
2023-04-26T23:27:06.605Z,98034.09
2023-04-26T23:29:33.971Z,98035.44
2023-04-26T23:32:02.764Z,98041.06
2023-04-26T23:34:30.171Z,98033.50
2023-04-26T23:36:58.959Z,98039.41
2023-04-26T23:39:36.153Z,98038.44
2023-04-26T23:42:04.073Z,98033.31
2023-04-26T23:44:31.576Z,98040.41
2023-04-26T23:46:58.917Z,98031.50
2023-04-26T23:49:26.504Z,98031.50
2023-04-26T23:51:53.941Z,98028.25
2023-04-26T23:54:21.429Z,98027.41
2023-04-26T23:56:49.006Z,98025.97
2023-04-26T23:59:16.935Z,98029.88
